OITR

Urmia Airport

Airport
ICAO code
OITR
IATA Code
OMH
Summary
ICAO Region
MID
ICAO Territory
Location

Asgar Abad, West Azerbijan Province

Serving
Urmia
Elevation
4343 ft
Coordinates
37° 39' 45" N , 45° 3' 33" E
KCC
Metar
Observation
OITR 070200Z 25004KT 9999 FEW040 BKN180 M02/M03 Q1021 A3015
Station
Orumieh
Date/Time
2022-12-07 02:00:00
Wind direction
250°
Wind speed
04 kts
Lowest cloud amount
few clouds
Temperature
-2°C
Dew point
-3°C
Humidity
92%
QNH
1021 hPa
Weather condition
n/a

Airport serving the central district of Urmia County, Iran. The airport is located some 13km north of the city of Urmia.

Climatology

Cold semi-arid climate (Köppen climate classification BSk).

Runways

Designator Length Width Surface Rops
3/21 3249 45 ASP No/No

Airport map

Aerial View

SKYbrary Partners:

Safety knowledge contributed by: